Time;durP1;ratioP1;P1;durP2;ratioP2;P2;SDS_P1;SDS_P2;PMS_P1;PMS_P2;Temp;Humidity;BMP_temperature;BMP_pressure;BME280_temperature;BME280_humidity;BME280_pressure;Samples;Min_cycle;Max_cycle;Signal;HPM_P1;HPM_P2
2021/07/02 00:02:18;;;;;;;7.43;5.28;;;;;;;16.68;70.04;100270.44;10340936;28;20049;-61
2021/07/02 00:07:19;;;;;;;8.55;5.78;;;;;;;16.68;69.45;100270.44;10346426;28;20046;-61
2021/07/02 00:12:21;;;;;;;6.30;5.50;;;;;;;16.63;71.13;100267.41;10348022;28;20049;-61
2021/07/02 00:17:23;;;;;;;9.32;6.22;;;;;;;16.65;71.20;100271.63;10362459;28;20597;-60
2021/07/02 00:22:25;;;;;;;9.20;6.57;;;;;;;16.56;71.67;100257.31;10343972;28;20068;-61
2021/07/02 00:27:26;;;;;;;7.43;5.80;;;;;;;16.73;72.31;100260.06;10343180;28;20517;-61
2021/07/02 00:32:28;;;;;;;8.38;6.13;;;;;;;16.73;71.09;100260.91;10357995;28;20045;-61
2021/07/02 00:37:29;;;;;;;6.97;5.32;;;;;;;16.59;71.30;100257.00;10344754;28;20049;-61
2021/07/02 00:42:31;;;;;;;9.50;6.13;;;;;;;16.48;71.67;100254.59;10337916;28;20499;-61
2021/07/02 00:47:33;;;;;;;8.55;5.95;;;;;;;16.60;72.14;100242.56;10337136;28;20503;-60
2021/07/02 00:52:34;;;;;;;6.70;6.00;;;;;;;16.75;71.62;100249.97;10338891;28;20051;-61
2021/07/02 00:57:38;;;;;;;8.50;6.15;;;;;;;16.72;71.45;100243.09;10353256;28;20153;-61
2021/07/02 01:02:40;;;;;;;7.15;6.22;;;;;;;16.80;71.51;100247.66;10343865;28;20053;-61
2021/07/02 01:07:43;;;;;;;8.98;7.13;;;;;;;16.77;70.37;100242.59;10341579;28;20060;-61
2021/07/02 01:12:45;;;;;;;9.60;6.97;;;;;;;16.72;71.22;100234.19;10350550;28;20399;-60
2021/07/02 01:17:47;;;;;;;7.93;5.95;;;;;;;16.71;71.50;100232.50;10329910;28;20045;-61
2021/07/02 01:22:48;;;;;;;8.07;6.78;;;;;;;16.72;72.44;100228.81;10340077;28;20046;-61
2021/07/02 01:27:50;;;;;;;9.07;7.85;;;;;;;16.70;71.95;100226.28;10344044;28;20050;-61
2021/07/02 01:32:53;;;;;;;11.02;7.28;;;;;;;16.63;72.26;100235.16;10321902;28;20050;-60
2021/07/02 01:37:54;;;;;;;10.07;7.88;;;;;;;16.64;73.46;100232.31;10330682;28;20066;-63
2021/07/02 01:42:56;;;;;;;8.25;7.20;;;;;;;16.59;74.40;100227.44;10329035;28;20053;-61
2021/07/02 01:47:58;;;;;;;10.32;7.22;;;;;;;16.60;74.06;100236.31;10339883;28;20046;-61
2021/07/02 01:52:59;;;;;;;8.32;6.32;;;;;;;16.62;74.52;100226.28;10343316;28;20046;-61
2021/07/02 01:58:01;;;;;;;9.07;6.72;;;;;;;16.58;74.06;100220.38;10339125;28;20053;-61
2021/07/02 02:03:03;;;;;;;8.98;7.55;;;;;;;16.53;73.68;100220.03;10348781;28;20050;-61
2021/07/02 02:08:05;;;;;;;10.32;8.00;;;;;;;16.52;74.50;100217.50;10345696;28;20069;-63
2021/07/02 02:13:06;;;;;;;10.68;7.93;;;;;;;16.53;74.89;100214.66;10349454;28;20069;-61
2021/07/02 02:18:08;;;;;;;9.63;8.43;;;;;;;16.54;74.45;100219.03;10345673;28;20046;-60
2021/07/02 02:23:09;;;;;;;11.52;7.70;;;;;;;16.55;74.25;100211.81;10345689;28;20050;-61
2021/07/02 02:28:11;;;;;;;9.15;7.70;;;;;;;16.48;74.38;100211.59;10333400;28;20046;-60
2021/07/02 02:33:13;;;;;;;8.65;7.57;;;;;;;16.42;74.85;100217.63;10342983;28;20046;-61
2021/07/02 02:38:14;;;;;;;12.10;7.18;;;;;;;16.41;74.73;100221.34;10354306;28;20061;-61
2021/07/02 02:43:16;;;;;;;11.82;8.20;;;;;;;16.41;73.98;100224.03;10333554;28;20871;-61
2021/07/02 02:48:17;;;;;;;9.93;8.82;;;;;;;16.43;74.11;100230.06;10344965;28;20053;-60
2021/07/02 02:53:19;;;;;;;9.77;7.68;;;;;;;16.39;73.88;100217.94;10353708;28;20057;-60
2021/07/02 02:58:20;;;;;;;11.35;8.80;;;;;;;16.41;73.30;100222.16;10331699;28;20438;-60
2021/07/02 03:03:22;;;;;;;13.05;8.50;;;;;;;16.42;73.35;100223.84;10345788;28;20056;-61
2021/07/02 03:08:38;;;;;;;11.38;7.80;;;;;;;16.35;73.06;100217.44;10349570;28;20050;-61
2021/07/02 03:13:40;;;;;;;11.05;8.07;;;;;;;16.39;73.11;100224.19;10342054;28;20045;-60
2021/07/02 03:18:42;;;;;;;9.75;8.68;;;;;;;16.40;73.17;100214.28;10346395;28;20053;-60
2021/07/02 03:23:43;;;;;;;10.77;7.78;;;;;;;16.41;73.35;100224.03;10339830;28;20054;-60
2021/07/02 03:28:45;;;;;;;9.77;8.02;;;;;;;16.46;73.67;100223.53;10346478;28;20054;-61
2021/07/02 03:33:46;;;;;;;10.57;8.02;;;;;;;16.48;73.44;100224.19;10341505;28;20480;-61
2021/07/02 03:38:48;;;;;;;9.93;8.40;;;;;;;16.48;73.27;100227.72;10336895;28;20057;-63
2021/07/02 03:43:49;;;;;;;12.45;8.65;;;;;;;16.51;73.41;100237.31;10328247;28;20049;-60
2021/07/02 03:48:51;;;;;;;9.93;7.63;;;;;;;16.52;73.23;100239.84;10338839;28;20124;-60
2021/07/02 03:53:52;;;;;;;14.00;8.57;;;;;;;16.52;73.78;100241.69;10337972;28;20053;-60
2021/07/02 03:58:54;;;;;;;10.18;8.27;;;;;;;16.49;73.46;100234.78;10334814;28;20050;-59
2021/07/02 04:03:55;;;;;;;13.18;8.48;;;;;;;16.52;73.73;100229.09;10336846;28;20053;-60
2021/07/02 04:08:57;;;;;;;11.45;8.73;;;;;;;16.54;72.78;100237.84;10338810;28;20056;-61
2021/07/02 04:13:58;;;;;;;11.68;9.18;;;;;;;16.55;72.47;100233.31;10345135;28;20065;-60
2021/07/02 04:19:00;;;;;;;11.13;9.00;;;;;;;16.59;73.15;100234.66;10346935;28;20050;-60
2021/07/02 04:24:01;;;;;;;11.63;8.93;;;;;;;16.64;73.67;100242.22;10344117;28;20042;-60
2021/07/02 04:29:03;;;;;;;12.10;9.90;;;;;;;16.63;73.81;100240.53;10321862;28;20058;-60
2021/07/02 04:34:05;;;;;;;12.30;9.43;;;;;;;16.68;73.89;100247.13;10340069;28;20054;-60
2021/07/02 04:39:06;;;;;;;11.82;8.85;;;;;;;16.68;74.11;100249.81;10333082;28;20534;-59
2021/07/02 04:44:08;;;;;;;10.73;9.48;;;;;;;16.69;73.47;100253.31;10331256;28;20802;-60
2021/07/02 04:49:10;;;;;;;12.00;9.90;;;;;;;16.68;73.33;100248.94;10340758;28;20410;-60
2021/07/02 04:54:11;;;;;;;12.05;10.68;;;;;;;16.79;72.50;100259.41;10337030;28;20054;-61
2021/07/02 04:59:14;;;;;;;15.75;10.93;;;;;;;16.78;72.05;100261.25;10333646;28;20450;-61
2021/07/02 05:04:15;;;;;;;11.38;9.73;;;;;;;16.78;72.84;100269.31;10341748;28;20050;-61
2021/07/02 05:09:17;;;;;;;13.50;9.85;;;;;;;16.71;73.26;100254.00;10337382;28;20050;-61
2021/07/02 05:14:19;;;;;;;12.52;9.23;;;;;;;16.77;73.53;100259.56;10332869;28;20056;-60
2021/07/02 05:19:20;;;;;;;13.52;9.25;;;;;;;16.87;73.25;100264.81;10308747;28;20069;-60
2021/07/02 05:24:22;;;;;;;12.07;9.32;;;;;;;16.94;73.05;100265.00;10318232;28;20045;-59
2021/07/02 05:29:23;;;;;;;11.68;9.93;;;;;;;17.00;72.77;100260.84;10314889;28;20385;-60
2021/07/02 05:34:25;;;;;;;14.75;10.55;;;;;;;17.10;72.62;100270.44;10312798;28;20563;-59
2021/07/02 05:39:26;;;;;;;10.38;9.02;;;;;;;17.25;72.19;100262.53;10315657;28;20716;-58
2021/07/02 05:44:28;;;;;;;13.13;10.27;;;;;;;17.44;70.98;100261.38;10312146;28;20054;-61
2021/07/02 05:49:30;;;;;;;13.63;8.18;;;;;;;17.63;70.25;100268.25;10325724;28;20064;-61
2021/07/02 05:54:32;;;;;;;8.18;6.53;;;;;;;17.53;67.92;100269.44;10330469;28;20065;-61
2021/07/02 05:59:34;;;;;;;9.02;6.55;;;;;;;17.67;68.17;100277.69;10313648;28;20053;-61
2021/07/02 06:04:35;;;;;;;9.45;7.38;;;;;;;17.41;66.94;100277.00;10334255;28;20054;-63
2021/07/02 06:09:37;;;;;;;10.07;6.60;;;;;;;17.51;67.74;100282.25;10303675;28;20064;-61
2021/07/02 06:14:38;;;;;;;8.57;6.43;;;;;;;17.50;66.28;100286.75;10327401;28;20692;-60
2021/07/02 06:19:40;;;;;;;8.27;6.22;;;;;;;17.36;66.27;100279.38;10336957;28;20428;-63
2021/07/02 06:24:42;;;;;;;10.63;6.57;;;;;;;17.46;67.50;100283.56;10340587;28;20076;-61
2021/07/02 06:29:43;;;;;;;9.15;7.00;;;;;;;17.74;65.07;100287.78;10354206;28;20478;-62
2021/07/02 06:34:45;;;;;;;7.88;6.78;;;;;;;17.75;64.55;100297.53;10351159;28;20048;-60
2021/07/02 06:39:47;;;;;;;8.57;6.63;;;;;;;17.66;64.58;100289.44;10352352;28;20053;-61
2021/07/02 06:44:48;;;;;;;9.35;6.93;;;;;;;17.84;65.10;100289.25;10349273;28;20056;-61
2021/07/02 06:49:50;;;;;;;8.88;7.28;;;;;;;17.74;65.01;100287.78;10348655;28;20053;-61
2021/07/02 06:54:51;;;;;;;10.18;7.70;;;;;;;18.17;65.56;100296.50;10345615;28;20050;-60
2021/07/02 06:59:54;;;;;;;10.02;6.88;;;;;;;18.61;64.33;100306.78;10347356;28;20050;-62
2021/07/02 07:04:56;;;;;;;8.60;5.93;;;;;;;18.59;63.33;100298.03;10347625;28;20058;-63
2021/07/02 07:09:57;;;;;;;9.07;7.18;;;;;;;18.36;63.74;100306.88;10342743;28;20056;-63
2021/07/02 07:14:59;;;;;;;10.10;7.32;;;;;;;18.54;64.02;100308.50;10346817;28;20052;-63
2021/07/02 07:20:00;;;;;;;10.10;6.13;;;;;;;18.47;63.60;100304.81;10346966;28;20057;-62
2021/07/02 07:25:02;;;;;;;11.27;7.85;;;;;;;18.88;61.60;100297.41;10343377;28;20057;-62
2021/07/02 07:30:06;;;;;;;10.88;8.48;;;;;;;19.04;60.84;100291.09;10356650;28;20046;-62
2021/07/02 07:35:43;;;;;;;8.43;7.33;;;;;;;19.31;60.25;100305.09;10346278;28;20714;-62
2021/07/02 07:40:36;;;;;;;8.38;7.07;;;;;;;19.00;60.09;100303.25;10340859;28;20265;-64
2021/07/02 07:45:38;;;;;;;10.68;7.57;;;;;;;18.86;60.27;100314.81;10345790;28;20061;-63
2021/07/02 07:50:44;;;;;;;11.77;7.38;;;;;;;18.97;58.09;100319.78;10346014;28;20514;-62
2021/07/02 07:55:45;;;;;;;7.30;5.82;;;;;;;19.28;58.52;100318.94;10340892;28;20045;-64
2021/07/02 08:00:47;;;;;;;9.55;7.35;;;;;;;19.52;58.03;100320.63;10345935;28;20072;-62
2021/07/02 08:05:49;;;;;;;8.48;5.85;;;;;;;19.52;58.07;100314.41;10396481;23;20056;-58
2021/07/02 08:10:51;;;;;;;8.57;5.80;;;;;;;19.24;57.49;100314.91;10389728;28;20722;-58
2021/07/02 08:15:52;;;;;;;8.32;6.60;;;;;;;19.53;57.65;100326.84;10386579;28;20071;-58
2021/07/02 08:20:54;;;;;;;6.75;6.03;;;;;;;19.88;57.42;100321.88;10384200;28;20049;-59
2021/07/02 08:25:56;;;;;;;7.50;5.38;;;;;;;20.43;56.29;100323.34;10364895;28;20049;-57
2021/07/02 08:30:57;;;;;;;7.10;5.85;;;;;;;20.28;55.12;100320.63;10361662;28;20423;-56
2021/07/02 08:35:59;;;;;;;10.30;6.28;;;;;;;20.29;53.83;100306.06;10384211;28;20076;-58
2021/07/02 08:41:02;;;;;;;9.07;4.57;;;;;;;20.65;53.73;100320.72;10384349;28;20046;-57
2021/07/02 08:46:04;;;;;;;7.13;5.72;;;;;;;20.39;52.62;100319.34;10387084;28;20045;-57
2021/07/02 08:51:07;;;;;;;8.73;6.05;;;;;;;19.94;54.26;100319.28;10381102;28;20046;-59
2021/07/02 08:56:09;;;;;;;5.60;5.03;;;;;;;19.92;53.40;100321.34;10368926;28;20049;-58
2021/07/02 09:01:33;;;;;;;6.53;5.10;;;;;;;20.77;52.87;100315.69;10382559;28;20291;-59
2021/07/02 09:06:35;;;;;;;10.32;5.75;;;;;;;21.49;51.13;100324.81;10376135;28;20103;-58
2021/07/02 09:11:37;;;;;;;7.32;5.60;;;;;;;21.68;49.88;100331.50;10380154;28;21207;-59
2021/07/02 09:16:44;;;;;;;5.43;4.40;;;;;;;21.39;49.09;100325.13;10379040;28;20049;-58
2021/07/02 09:21:46;;;;;;;5.25;4.43;;;;;;;21.17;48.27;100335.13;10389807;28;20117;-57
2021/07/02 09:26:48;;;;;;;6.97;5.25;;;;;;;21.09;47.84;100327.97;10368936;28;20657;-56
2021/07/02 09:31:59;;;;;;;7.78;5.30;;;;;;;21.80;47.58;100319.09;10376696;28;20044;-58
2021/07/02 09:37:19;;;;;;;5.00;4.25;;;;;;;22.21;44.75;100326.47;10364372;28;20061;-58
2021/07/02 09:42:28;;;;;;;4.68;3.95;;;;;;;22.32;44.91;100337.84;10380553;28;20510;-58
2021/07/02 09:47:30;;;;;;;6.80;5.00;;;;;;;21.51;45.83;100328.19;10384263;28;20052;-55
2021/07/02 09:52:32;;;;;;;7.30;4.45;;;;;;;21.67;47.32;100324.41;10379597;28;20510;-57
2021/07/02 09:57:33;;;;;;;5.50;4.85;;;;;;;22.44;44.08;100328.13;10378128;28;20060;-57
2021/07/02 10:02:36;;;;;;;6.43;4.57;;;;;;;22.89;43.91;100319.56;10378606;28;20101;-57
2021/07/02 10:07:39;;;;;;;4.97;4.57;;;;;;;22.97;43.63;100326.69;10378328;28;20507;-58
2021/07/02 10:12:41;;;;;;;5.30;4.53;;;;;;;23.85;43.13;100332.13;10384569;28;20045;-58
2021/07/02 10:17:44;;;;;;;9.25;4.70;;;;;;;24.16;40.54;100336.94;10384473;28;20177;-57
2021/07/02 10:22:47;;;;;;;5.38;3.92;;;;;;;24.55;39.94;100320.75;10391321;28;20517;-55
2021/07/02 10:27:49;;;;;;;4.80;4.23;;;;;;;24.25;39.31;100336.72;10398031;28;20053;-56
2021/07/02 10:32:55;;;;;;;4.63;4.13;;;;;;;23.77;39.32;100335.03;10370286;28;20163;-57
2021/07/02 10:37:59;;;;;;;4.50;3.95;;;;;;;23.36;40.80;100338.75;10384580;28;20053;-60
2021/07/02 10:43:23;;;;;;;7.20;4.82;;;;;;;23.00;41.00;100329.00;10379854;28;20084;-57
2021/07/02 10:48:50;;;;;;;4.68;4.18;;;;;;;23.14;41.75;100338.91;10382202;28;20045;-57
2021/07/02 10:53:54;;;;;;;6.05;3.92;;;;;;;23.93;41.73;100337.38;10387620;28;20045;-57
2021/07/02 10:58:57;;;;;;;6.32;4.50;;;;;;;24.00;39.59;100334.66;10379110;28;20038;-57
2021/07/02 11:04:41;;;;;;;6.75;4.60;;;;;;;24.29;39.63;100322.50;10370099;28;20072;-57
2021/07/02 11:09:55;;;;;;;3.70;3.40;;;;;;;24.95;39.88;100323.34;10364061;28;20511;-56
2021/07/02 11:15:03;;;;;;;5.20;4.25;;;;;;;24.90;39.26;100317.69;10383413;28;20120;-57
2021/07/02 11:20:11;;;;;;;4.25;3.85;;;;;;;25.08;37.12;100314.25;10354766;28;20411;-57
2021/07/02 11:35:36;;;;;;;4.47;3.88;;;;;;;25.67;37.48;100312.25;10376083;28;20065;-56
2021/07/02 11:40:39;;;;;;;;;;;;;;;25.90;35.97;100310.78;10378362;28;20498;-57
2021/07/02 11:45:54;;;;;;;4.30;3.83;;;;;;;26.18;35.97;100287.69;10376560;28;19925;-57
2021/07/02 11:51:23;;;;;;;4.85;4.43;;;;;;;25.83;36.14;100307.28;10377092;28;20053;-56
2021/07/02 11:56:33;;;;;;;5.43;4.60;;;;;;;24.96;36.62;100297.78;10371474;28;20049;-57
2021/07/02 12:01:39;;;;;;;5.15;4.10;;;;;;;25.07;36.53;100296.25;10378469;28;20709;-56
2021/07/02 12:07:06;;;;;;;5.30;4.30;;;;;;;25.11;37.06;100288.50;10382307;28;20252;-57
2021/07/02 12:12:08;;;;;;;6.40;5.15;;;;;;;24.82;36.94;100285.31;10382724;28;20037;-58
2021/07/02 12:17:10;;;;;;;7.78;4.88;;;;;;;24.89;38.33;100288.81;10382424;28;20057;-57
2021/07/02 12:22:14;;;;;;;6.35;4.68;;;;;;;24.80;37.45;100290.97;10382007;28;20060;-57
2021/07/02 12:27:19;;;;;;;5.63;5.13;;;;;;;24.23;39.43;100293.44;10374722;28;20047;-57
2021/07/02 12:32:25;;;;;;;5.80;5.18;;;;;;;24.06;40.56;100284.03;10380311;28;20054;-57
2021/07/02 12:37:27;;;;;;;6.07;4.50;;;;;;;24.20;40.22;100285.69;10362361;28;20643;-57
2021/07/02 12:42:39;;;;;;;7.35;5.45;;;;;;;23.94;40.57;100289.28;10368441;28;20053;-57
2021/07/02 12:47:46;;;;;;;6.25;5.07;;;;;;;24.04;40.53;100283.44;10377189;28;20050;-58
2021/07/02 12:58:16;;;;;;;6.43;4.80;;;;;;;25.61;37.60;100285.84;10368135;28;20450;-57
2021/07/02 13:03:19;;;;;;;5.80;5.13;;;;;;;25.67;38.28;100279.53;10356521;28;20061;-56
2021/07/02 13:08:37;;;;;;;6.13;4.90;;;;;;;26.00;35.80;100283.88;10361532;28;20060;-57
2021/07/02 13:13:39;;;;;;;7.25;4.75;;;;;;;25.87;35.80;100281.25;10372092;28;20049;-57
2021/07/02 13:18:52;;;;;;;5.88;4.43;;;;;;;25.56;36.56;100281.06;10360519;28;20045;-57
2021/07/02 13:23:56;;;;;;;7.03;4.43;;;;;;;25.82;35.69;100281.94;10370846;28;20048;-57
2021/07/02 13:29:03;;;;;;;4.60;4.15;;;;;;;25.45;35.04;100286.44;10356076;28;20042;-57
2021/07/02 13:34:10;;;;;;;4.65;4.25;;;;;;;25.16;36.56;100277.75;10371233;28;20057;-57
2021/07/02 13:39:24;;;;;;;5.40;4.60;;;;;;;25.40;35.92;100279.75;10364520;28;20061;-58
2021/07/02 13:44:30;;;;;;;4.30;3.90;;;;;;;25.21;35.49;100270.59;10375572;28;20049;-57
2021/07/02 13:49:33;;;;;;;4.43;4.03;;;;;;;25.00;36.42;100279.97;10381850;28;20440;-57
2021/07/02 13:54:36;;;;;;;4.32;3.92;;;;;;;25.10;35.72;100281.38;10372938;28;20053;-58
2021/07/02 13:59:39;;;;;;;;;;;;;;;25.23;34.98;100278.56;10378749;28;20064;-57
2021/07/02 14:04:41;;;;;;;;;;;;;;;25.75;35.91;100276.50;10385524;23;19928;-64
2021/07/02 14:09:43;;;;;;;5.07;4.00;;;;;;;26.01;35.34;100269.16;10342875;28;19929;-64
2021/07/02 14:14:44;;;;;;;4.68;4.28;;;;;;;25.85;34.93;100272.44;10342278;28;20056;-65
2021/07/02 14:19:46;;;;;;;4.97;4.13;;;;;;;25.74;35.70;100274.00;10343536;28;20057;-69
2021/07/02 14:24:47;;;;;;;5.05;4.55;;;;;;;25.52;35.54;100270.84;10344861;28;20442;-65
2021/07/02 14:29:49;;;;;;;4.75;4.32;;;;;;;25.21;36.79;100276.06;10347372;28;20045;-65
2021/07/02 14:34:50;;;;;;;5.63;4.90;;;;;;;25.24;37.65;100280.25;10340921;28;20054;-66
2021/07/02 14:39:52;;;;;;;5.65;4.40;;;;;;;25.23;37.33;100265.75;10341047;28;20056;-65
2021/07/02 14:44:54;;;;;;;5.13;4.60;;;;;;;25.19;36.97;100272.72;10340275;28;20057;-65
2021/07/02 14:49:55;;;;;;;5.25;4.50;;;;;;;25.25;38.11;100273.72;10346304;28;20740;-64
2021/07/02 14:54:57;;;;;;;5.13;4.55;;;;;;;25.52;37.83;100271.69;10350743;28;20434;-62
2021/07/02 14:59:59;;;;;;;6.43;4.75;;;;;;;25.46;38.54;100272.59;10344538;28;20057;-64
2021/07/02 15:05:00;;;;;;;5.65;5.15;;;;;;;25.15;37.57;100276.13;10352505;28;20129;-64
2021/07/02 15:10:02;;;;;;;4.95;4.45;;;;;;;24.97;37.44;100272.22;10350894;28;20588;-64
2021/07/02 15:15:05;;;;;;;4.90;4.38;;;;;;;24.61;38.85;100270.13;10353303;28;20073;-64
2021/07/02 15:20:07;;;;;;;5.05;4.57;;;;;;;24.58;37.69;100271.38;10348654;28;20515;-66
2021/07/02 15:25:09;;;;;;;5.80;4.67;;;;;;;24.53;38.84;100269.25;10342342;28;20053;-65
2021/07/02 15:30:35;;;;;;;4.40;4.00;;;;;;;24.76;39.02;100272.56;10346081;28;20054;-65
2021/07/02 15:35:37;;;;;;;5.00;4.50;;;;;;;24.81;38.63;100259.13;10342896;28;20112;-65
2021/07/02 15:40:39;;;;;;;4.93;4.43;;;;;;;24.75;38.55;100260.00;10347589;28;20042;-65
2021/07/02 15:45:40;;;;;;;5.78;4.50;;;;;;;24.64;38.56;100264.22;10346597;28;20050;-64
2021/07/02 15:50:42;;;;;;;6.25;5.57;;;;;;;24.52;38.96;100264.88;10347163;28;20042;-64
2021/07/02 15:55:44;;;;;;;7.32;5.72;;;;;;;24.46;39.27;100251.31;10344587;28;20053;-62
2021/07/02 16:00:45;;;;;;;4.95;4.55;;;;;;;24.46;39.76;100251.31;10344154;28;20080;-63
2021/07/02 16:05:47;;;;;;;4.50;4.10;;;;;;;24.43;39.84;100249.00;10342975;28;20539;-64
2021/07/02 16:10:49;;;;;;;5.72;5.22;;;;;;;24.23;39.75;100249.91;10344098;28;20134;-62
2021/07/02 16:15:51;;;;;;;6.53;5.05;;;;;;;24.06;40.77;100243.25;10343692;28;20271;-63
2021/07/02 16:20:54;;;;;;;5.35;4.85;;;;;;;24.32;40.74;100242.34;10348105;28;20583;-66
2021/07/02 16:25:55;;;;;;;5.10;4.35;;;;;;;24.48;40.52;100247.28;10340525;28;20045;-63
2021/07/02 16:30:57;;;;;;;5.53;4.38;;;;;;;24.42;40.46;100236.44;10344419;28;20438;-62
2021/07/02 16:35:59;;;;;;;5.10;4.55;;;;;;;24.28;40.17;100233.78;10347747;28;20057;-63
2021/07/02 16:41:00;;;;;;;6.97;4.82;;;;;;;24.25;40.35;100245.09;10343528;28;20046;-62
2021/07/02 16:46:02;;;;;;;6.38;4.70;;;;;;;24.21;40.49;100238.41;10343003;28;20285;-61
2021/07/02 16:51:04;;;;;;;5.43;4.60;;;;;;;24.12;40.13;100251.38;10341907;28;20100;-61
2021/07/02 16:56:05;;;;;;;5.28;4.75;;;;;;;24.26;40.56;100249.47;10344316;28;20046;-63
2021/07/02 17:01:07;;;;;;;4.82;4.32;;;;;;;24.20;40.18;100247.63;10352544;28;20664;-63
2021/07/02 17:06:09;;;;;;;6.70;4.53;;;;;;;24.29;40.66;100246.34;10340591;28;20499;-63
2021/07/02 17:11:11;;;;;;;5.17;4.47;;;;;;;24.12;41.13;100242.41;10338800;28;20050;-63
2021/07/02 17:16:13;;;;;;;6.38;5.05;;;;;;;24.08;41.06;100243.88;10340598;28;20181;-64
2021/07/02 17:21:17;;;;;;;5.25;4.40;;;;;;;24.06;41.59;100254.13;10345136;28;20095;-63
2021/07/02 17:26:21;;;;;;;4.80;4.40;;;;;;;24.02;41.60;100251.00;10338572;28;20042;-64
2021/07/02 17:31:22;;;;;;;5.30;4.53;;;;;;;23.92;41.23;100246.00;10344762;28;20049;-63
2021/07/02 17:36:27;;;;;;;4.88;3.80;;;;;;;23.69;41.52;100243.72;10347772;28;20041;-63
2021/07/02 17:41:31;;;;;;;4.68;4.22;;;;;;;23.63;41.96;100242.66;10340880;28;20046;-65
2021/07/02 17:46:33;;;;;;;4.95;3.90;;;;;;;23.65;41.83;100237.84;10331836;28;20064;-63
2021/07/02 17:51:35;;;;;;;4.10;3.70;;;;;;;23.72;42.12;100240.56;10339150;28;20135;-63
2021/07/02 17:56:36;;;;;;;5.30;4.80;;;;;;;23.69;41.89;100232.84;10341532;28;20050;-62
2021/07/02 18:01:40;;;;;;;5.47;4.97;;;;;;;23.33;42.44;100215.09;10341181;28;20061;-63
2021/07/02 18:06:42;;;;;;;6.90;4.70;;;;;;;23.43;43.00;100225.50;10341671;28;20054;-65
2021/07/02 18:11:44;;;;;;;5.38;4.53;;;;;;;23.33;42.38;100225.09;10331881;28;20057;-63
2021/07/02 18:16:45;;;;;;;5.22;4.72;;;;;;;23.23;42.93;100223.63;10339327;28;20046;-64
2021/07/02 18:21:47;;;;;;;4.95;4.15;;;;;;;23.24;43.49;100222.59;10342665;28;20148;-64
2021/07/02 18:26:49;;;;;;;5.53;4.60;;;;;;;23.17;44.12;100210.88;10350949;28;20045;-65
2021/07/02 18:31:50;;;;;;;5.43;3.90;;;;;;;23.07;44.62;100210.41;10348590;28;20061;-64
2021/07/02 18:36:52;;;;;;;5.80;4.95;;;;;;;23.10;45.09;100220.91;10346465;28;20267;-63
2021/07/02 18:41:54;;;;;;;8.25;4.80;;;;;;;23.09;45.40;100219.22;10347844;28;20061;-64
2021/07/02 18:46:55;;;;;;;4.53;4.13;;;;;;;23.11;45.40;100225.28;10345881;28;20050;-65
2021/07/02 18:51:57;;;;;;;5.85;4.80;;;;;;;23.06;46.04;100225.03;10347874;28;20042;-64
2021/07/02 18:57:00;;;;;;;5.85;5.30;;;;;;;22.90;46.08;100216.22;10357005;28;20490;-64
2021/07/02 19:02:03;;;;;;;5.32;4.82;;;;;;;22.82;46.76;100221.00;10353140;28;20073;-63
2021/07/02 19:07:04;;;;;;;6.97;5.40;;;;;;;22.68;47.25;100222.84;10358842;28;20064;-63
2021/07/02 19:12:06;;;;;;;6.30;5.05;;;;;;;22.59;47.80;100228.47;10355119;28;20038;-63
2021/07/02 19:17:08;;;;;;;7.97;6.03;;;;;;;22.48;47.82;100226.34;10345467;28;20077;-64
2021/07/02 19:22:10;;;;;;;6.80;5.93;;;;;;;22.38;48.19;100231.28;10345634;28;20069;-64
2021/07/02 19:27:12;;;;;;;5.73;4.90;;;;;;;22.27;47.85;100231.84;10351119;28;20659;-64
2021/07/02 19:32:14;;;;;;;6.78;5.88;;;;;;;22.18;48.17;100229.28;10349668;28;20053;-64
2021/07/02 19:37:15;;;;;;;7.38;5.90;;;;;;;22.08;48.34;100231.53;10343089;28;20050;-63
2021/07/02 19:42:17;;;;;;;6.93;6.18;;;;;;;21.98;48.72;100228.34;10354314;28;20057;-63
2021/07/02 19:47:18;;;;;;;8.00;6.85;;;;;;;21.89;49.01;100241.22;10356632;28;20609;-63
2021/07/02 19:52:20;;;;;;;6.55;5.95;;;;;;;21.81;49.67;100250.34;10349687;28;20073;-63
2021/07/02 19:57:22;;;;;;;8.68;7.22;;;;;;;21.73;50.79;100257.78;10358846;28;20046;-64
2021/07/02 20:02:24;;;;;;;12.48;11.13;;;;;;;21.64;50.68;100265.19;10356344;28;20049;-62
2021/07/02 20:07:25;;;;;;;8.40;7.53;;;;;;;21.57;50.41;100272.44;10389113;22;20053;-62
2021/07/02 20:12:27;;;;;;;6.70;5.82;;;;;;;21.51;50.04;100271.34;10382278;28;20050;-62
2021/07/02 20:17:28;;;;;;;8.23;6.95;;;;;;;21.42;50.24;100267.88;10382232;28;20045;-62
2021/07/02 20:22:30;;;;;;;7.85;6.15;;;;;;;21.39;50.86;100279.09;10378355;28;20417;-62
2021/07/02 20:27:31;;;;;;;7.50;6.63;;;;;;;21.32;50.89;100283.66;10386504;28;20057;-62
2021/07/02 20:32:33;;;;;;;8.15;6.60;;;;;;;21.24;52.35;100281.03;10380496;28;20045;-62
2021/07/02 20:37:35;;;;;;;7.90;6.78;;;;;;;21.11;52.80;100282.59;10378345;28;20041;-62
2021/07/02 20:42:37;;;;;;;7.20;6.57;;;;;;;21.04;52.68;100278.97;10381526;28;20056;-61
2021/07/02 20:47:40;;;;;;;8.48;7.72;;;;;;;21.01;53.31;100285.59;10382197;28;20054;-62
2021/07/02 20:52:42;;;;;;;8.15;7.30;;;;;;;20.98;53.45;100285.97;10380768;28;20053;-62
2021/07/02 20:57:44;;;;;;;11.27;9.95;;;;;;;20.91;53.23;100287.78;10378525;28;20069;-62
2021/07/02 21:02:47;;;;;;;9.43;8.43;;;;;;;20.88;53.30;100276.50;10381964;28;20053;-61
2021/07/02 21:07:49;;;;;;;11.80;8.00;;;;;;;20.84;53.51;100276.88;10378424;28;20045;-62
2021/07/02 21:12:51;;;;;;;8.40;7.43;;;;;;;20.84;53.96;100287.69;10377241;28;20053;-61
2021/07/02 21:17:53;;;;;;;9.47;8.43;;;;;;;20.82;53.53;100289.78;10379574;28;20041;-62
2021/07/02 21:22:55;;;;;;;8.00;7.00;;;;;;;20.86;53.63;100289.38;10382101;28;20064;-63
2021/07/02 21:27:57;;;;;;;7.35;6.55;;;;;;;20.89;53.46;100289.84;10380873;28;20418;-62
2021/07/02 21:32:58;;;;;;;6.45;5.75;;;;;;;20.91;53.60;100292.34;10378421;28;20049;-63
2021/07/02 21:38:00;;;;;;;6.93;6.22;;;;;;;20.88;53.95;100282.72;10384549;28;20136;-61
2021/07/02 21:43:02;;;;;;;7.25;6.65;;;;;;;20.81;53.86;100287.25;10381041;28;20069;-63
2021/07/02 21:48:04;;;;;;;6.93;6.25;;;;;;;20.73;54.46;100269.28;10380172;28;20068;-62
2021/07/02 21:53:06;;;;;;;7.07;6.35;;;;;;;20.68;54.43;100268.16;10378690;28;20054;-63
2021/07/02 21:58:07;;;;;;;8.48;6.32;;;;;;;20.60;54.31;100274.47;10381453;28;20524;-62
2021/07/02 22:03:09;;;;;;;6.38;5.82;;;;;;;20.53;54.43;100273.56;10387348;28;20053;-62
2021/07/02 22:08:11;;;;;;;7.43;6.72;;;;;;;20.45;54.52;100267.22;10387364;28;20109;-62
2021/07/02 22:13:14;;;;;;;7.22;6.53;;;;;;;20.36;54.60;100271.06;10401116;28;20046;-62
2021/07/02 22:18:16;;;;;;;7.55;6.53;;;;;;;20.30;55.52;100274.50;10387722;28;20054;-63
2021/07/02 22:23:17;;;;;;;7.50;6.53;;;;;;;20.26;55.82;100279.44;10386605;28;20057;-62
2021/07/02 22:28:19;;;;;;;7.85;6.95;;;;;;;20.19;55.98;100272.25;10385625;28;20045;-62
2021/07/02 22:33:21;;;;;;;8.10;6.72;;;;;;;20.06;56.23;100268.34;10387997;28;20053;-62
2021/07/02 22:38:22;;;;;;;8.18;6.85;;;;;;;20.04;57.05;100270.41;10385371;28;20053;-61
2021/07/02 22:43:24;;;;;;;9.27;6.57;;;;;;;19.99;57.21;100262.00;10387228;28;20041;-61
2021/07/02 22:48:25;;;;;;;8.73;6.82;;;;;;;19.89;58.17;100253.31;10387719;28;20529;-61
2021/07/02 22:53:27;;;;;;;9.02;6.88;;;;;;;19.88;58.27;100257.06;10387336;28;20271;-62
2021/07/02 22:58:29;;;;;;;8.40;7.57;;;;;;;19.81;58.80;100258.81;10386717;28;20053;-61
2021/07/02 23:03:30;;;;;;;8.27;6.90;;;;;;;19.78;59.51;100262.72;10387913;28;20052;-62
2021/07/02 23:08:32;;;;;;;8.27;7.05;;;;;;;19.69;59.88;100261.91;10386813;28;20045;-62
2021/07/02 23:13:33;;;;;;;7.60;6.85;;;;;;;19.63;60.26;100259.94;10387260;28;20061;-62
2021/07/02 23:18:35;;;;;;;8.75;7.75;;;;;;;19.58;60.70;100249.69;10387076;28;20048;-65
2021/07/02 23:23:37;;;;;;;8.40;7.60;;;;;;;19.54;60.94;100252.94;10388442;28;20051;-61
2021/07/02 23:28:39;;;;;;;7.78;7.00;;;;;;;19.51;61.21;100261.41;10386564;28;20278;-61